首页
METAR-TAF:

METAR-TAF

机场 :

贝鲁特, 黎巴嫩

纬度: 33-49N, 经度: 035-29E, 海拔: 29米

当前天气观测

该预报发布于44分钟前的08:00 UTC
风速13节,风向西转西南
温度 30°C
湿度 62%
气压 1008 hPa
能見度: 8000
少量云层高于2600英尺

METAR: OLBA 140800Z 24013KT 8000 FEW026 30/22 Q1008 NOSIG

时间: 11:44 (08:44 UTC)

预报

该预报发布于4小时和44分钟前的04:00 UTC
预报有效从14日的 06点(UTC)到 15日的 12点(UTC)
风速15节,风向西南
能見度: 8000
散云层高于2600英尺
成为
从 14日的 20点(UTC)到 14日的 22点(UTC)
风速4节,风向东南
能见度10公里或以上
少量云层高于2600英尺
成为
从 15日的 06点(UTC)到 15日的 08点(UTC)
风速13节,风向西转西南

TAF: OLBA 140400Z 1406/1512 23015KT 8000 SCT026 BECMG 1420/1422 14004KT 9999 FEW026 BECMG 1506/1508 25013KT

超过4000个机场的气象观测和天气预报(METAR&TAF报告)。

可查询的气象台以黄色和红色小点在地图上表示。

将鼠标移到小点上方,可查看气象台名称。

然后点击查看天气观测和预报。

如需切换地图:点击带黑十字的绿色按钮放大地图;点击带横线的绿色按钮缩小地图;或者点击绿色箭头查看邻近地区的地图。


METAR-TAF: